Dauntless Aviation
Airports Europe Germany
EDSW

Altdorf-Wallburg Airport

Altdorf, GERMANY

Airport Info
Suggest Updated Information for this Airport

Location

Latitude / Longitude: 48°16'12"N / 7°50'30"E
  48°16.2'N / 7°50.514'E
  48.2700 / 7.8419
Satellite photo at:
Airport distance calculator
From:
Weather Reports

METAR

EDTL
5.8nm NW
EDTL 201150Z 21011KT 9999 FEW030 BKN045 18/11 Q1016
LFST
18.2nm NW
LFST 201200Z AUTO 22010KT 180V250 9999 BKN041 BKN047 OVC060 19/11 Q1015 TEMPO RA
LFGA
22.2nm SW
LFGA 201200Z AUTO 24011KT CAVOK 19/11 Q1016
EDSB
32.3nm N
EDSB 201220Z 25008KT 9999 SCT048 BKN092 18/12 Q1015

TAF

EDTL
5.8nm NW
TAF EDTL 201100Z 2012/2021 21010KT 9999 SCT040 BECMG 2018/2020 20005KT
LFST
18.2nm NW
TAF LFST 201100Z 2012/2112 19010KT 9999 BKN050 TEMPO 2012/2015 23012G22KT RA BECMG 2017/2020 VRB03KT BECMG 2106/2109 20010KT
EDSB
32.3nm N
TAF EDSB 201100Z 2012/2112 21010KT 9999 SCT035 PROB30 TEMPO 2012/2014 22015G25KT BECMG 2019/2021 21005KT BECMG 2108/2111 21010KT
Safelog

 

Dauntless Aviation

© 2007-2017 Dauntless Aviation, all rights reserved
Information provided via PilotNav comes from a variety of official and unofficial data sources. As errors are possible, do not use PilotNav for primary flight planning purposes. Verify any information that you receive via PilotNav with current and canonical charts and other official documents. The material in this database is subject to database copyrights held by Dauntless Aviation and may not be copied without the express permission of Dauntless Aviation - licenses for use of part of all of this data are available for purchase; enquire via the Dauntless Aviation helpdesk. A number of mechanisms and markers exist in the database to protect against and identify infringement / copyright. Automated queries against this website are stictly prohibited, and all activity is logged and analyzed.